sensor_id;sensor_type;location;lat;lon;timestamp;temperature;humidity
4435;DHT22;46552;52.150;8.428;2023-03-01T00:00:04;0.40;99.90
4435;DHT22;46552;52.150;8.428;2023-03-01T00:02:35;0.40;99.90
4435;DHT22;46552;52.150;8.428;2023-03-01T00:05:03;0.30;99.90
4435;DHT22;46552;52.150;8.428;2023-03-01T00:19:50;0.20;99.90
4435;DHT22;46552;52.150;8.428;2023-03-01T00:24:44;0.20;99.90
4435;DHT22;46552;52.150;8.428;2023-03-01T00:37:03;0.10;99.90
4435;DHT22;46552;52.150;8.428;2023-03-01T00:39:32;0.10;99.90
4435;DHT22;46552;52.150;8.428;2023-03-01T00:42:00;0.10;99.90
4435;DHT22;46552;52.150;8.428;2023-03-01T00:54:23;0.10;99.90
4435;DHT22;46552;52.150;8.428;2023-03-01T01:04:13;0.00;99.90
4435;DHT22;46552;52.150;8.428;2023-03-01T01:06:42;0.10;99.90
4435;DHT22;46552;52.150;8.428;2023-03-01T01:09:12;0.10;99.90
4435;DHT22;46552;52.150;8.428;2023-03-01T01:11:46;0.00;99.90
4435;DHT22;46552;52.150;8.428;2023-03-01T01:14:14;0.00;99.90
4435;DHT22;46552;52.150;8.428;2023-03-01T01:19:09;-0.10;99.90
4435;DHT22;46552;52.150;8.428;2023-03-01T01:24:06;-0.30;99.90
4435;DHT22;46552;52.150;8.428;2023-03-01T01:26:34;-0.30;99.90
4435;DHT22;46552;52.150;8.428;2023-03-01T01:29:04;-0.40;99.90
4435;DHT22;46552;52.150;8.428;2023-03-01T01:31:33;-0.50;99.90
4435;DHT22;46552;52.150;8.428;2023-03-01T01:34:03;-0.50;99.90
4435;DHT22;46552;52.150;8.428;2023-03-01T01:36:32;-0.50;99.90
4435;DHT22;46552;52.150;8.428;2023-03-01T01:41:28;-0.60;99.90
4435;DHT22;46552;52.150;8.428;2023-03-01T01:44:15;-0.70;99.90
4435;DHT22;46552;52.150;8.428;2023-03-01T01:46:45;-2.70;99.90
4435;DHT22;46552;52.150;8.428;2023-03-01T01:49:22;-0.60;99.90
4435;DHT22;46552;52.150;8.428;2023-03-01T01:51:57;-0.60;99.90
4435;DHT22;46552;52.150;8.428;2023-03-01T01:54:31;-0.60;99.90
4435;DHT22;46552;52.150;8.428;2023-03-01T01:57:03;-0.60;99.90
4435;DHT22;46552;52.150;8.428;2023-03-01T01:59:34;-0.60;99.90
4435;DHT22;46552;52.150;8.428;2023-03-01T02:02:03;-0.60;99.90
4435;DHT22;46552;52.150;8.428;2023-03-01T02:04:32;-0.60;99.90
4435;DHT22;46552;52.150;8.428;2023-03-01T02:07:03;-0.60;99.90
4435;DHT22;46552;52.150;8.428;2023-03-01T02:09:32;-0.60;99.90
4435;DHT22;46552;52.150;8.428;2023-03-01T02:16:58;-0.70;99.90
4435;DHT22;46552;52.150;8.428;2023-03-01T02:19:39;-0.70;99.90
4435;DHT22;46552;52.150;8.428;2023-03-01T02:22:19;-0.70;99.90
4435;DHT22;46552;52.150;8.428;2023-03-01T02:24:54;-0.80;99.90
4435;DHT22;46552;52.150;8.428;2023-03-01T02:27:30;-0.80;99.90
4435;DHT22;46552;52.150;8.428;2023-03-01T02:30:01;-0.80;99.90
4435;DHT22;46552;52.150;8.428;2023-03-01T02:37:26;-0.80;99.90
4435;DHT22;46552;52.150;8.428;2023-03-01T02:39:56;-0.90;99.90
4435;DHT22;46552;52.150;8.428;2023-03-01T02:42:30;-0.90;99.90
4435;DHT22;46552;52.150;8.428;2023-03-01T02:47:27;-1.00;99.90
4435;DHT22;46552;52.150;8.428;2023-03-01T02:49:55;-1.00;99.90
4435;DHT22;46552;52.150;8.428;2023-03-01T02:52:42;-1.00;99.90
4435;DHT22;46552;52.150;8.428;2023-03-01T02:55:12;-1.10;99.90
4435;DHT22;46552;52.150;8.428;2023-03-01T02:57:42;-1.20;99.90
4435;DHT22;46552;52.150;8.428;2023-03-01T03:00:14;-1.20;99.90
4435;DHT22;46552;52.150;8.428;2023-03-01T03:02:46;-1.20;99.90
4435;DHT22;46552;52.150;8.428;2023-03-01T03:05:16;-1.20;99.90
4435;DHT22;46552;52.150;8.428;2023-03-01T03:07:46;-1.20;99.90
4435;DHT22;46552;52.150;8.428;2023-03-01T03:10:21;-1.20;99.90
4435;DHT22;46552;52.150;8.428;2023-03-01T03:12:51;-1.20;99.90
4435;DHT22;46552;52.150;8.428;2023-03-01T03:17:50;-1.50;99.90
4435;DHT22;46552;52.150;8.428;2023-03-01T03:20:20;-1.30;99.90
4435;DHT22;46552;52.150;8.428;2023-03-01T03:22:49;-1.30;99.90
4435;DHT22;46552;52.150;8.428;2023-03-01T03:25:17;-1.40;99.90
4435;DHT22;46552;52.150;8.428;2023-03-01T03:27:46;-1.30;99.90
4435;DHT22;46552;52.150;8.428;2023-03-01T03:30:16;-1.20;99.90
4435;DHT22;46552;52.150;8.428;2023-03-01T03:32:45;-1.30;99.90
4435;DHT22;46552;52.150;8.428;2023-03-01T03:35:20;-1.30;99.90
4435;DHT22;46552;52.150;8.428;2023-03-01T03:40:33;-1.30;99.90
4435;DHT22;46552;52.150;8.428;2023-03-01T03:50:27;-1.40;99.90
4435;DHT22;46552;52.150;8.428;2023-03-01T04:00:21;-1.50;99.90
4435;DHT22;46552;52.150;8.428;2023-03-01T04:02:50;-1.50;99.90
4435;DHT22;46552;52.150;8.428;2023-03-01T04:07:50;-1.60;99.90
4435;DHT22;46552;52.150;8.428;2023-03-01T04:10:27;-1.70;99.90
4435;DHT22;46552;52.150;8.428;2023-03-01T04:15:23;-1.70;99.90
4435;DHT22;46552;52.150;8.428;2023-03-01T04:17:52;-1.70;99.90
4435;DHT22;46552;52.150;8.428;2023-03-01T04:20:20;-1.70;99.90
4435;DHT22;46552;52.150;8.428;2023-03-01T04:22:57;-1.60;99.90
4435;DHT22;46552;52.150;8.428;2023-03-01T04:25:24;-1.50;99.90
4435;DHT22;46552;52.150;8.428;2023-03-01T04:40:16;-1.70;99.90
4435;DHT22;46552;52.150;8.428;2023-03-01T04:47:40;-1.70;99.90
4435;DHT22;46552;52.150;8.428;2023-03-01T04:50:09;-2.00;99.90
4435;DHT22;46552;52.150;8.428;2023-03-01T04:55:04;-1.90;99.90
4435;DHT22;46552;52.150;8.428;2023-03-01T04:57:34;-1.80;99.90
4435;DHT22;46552;52.150;8.428;2023-03-01T05:12:37;-2.00;99.90
4435;DHT22;46552;52.150;8.428;2023-03-01T05:15:06;-2.10;99.90
4435;DHT22;46552;52.150;8.428;2023-03-01T05:22:33;-2.00;99.90
4435;DHT22;46552;52.150;8.428;2023-03-01T05:29:59;-0.80;99.90
4435;DHT22;46552;52.150;8.428;2023-03-01T05:35:06;-1.60;99.90
4435;DHT22;46552;52.150;8.428;2023-03-01T05:44:59;-2.00;99.90
4435;DHT22;46552;52.150;8.428;2023-03-01T06:02:11;-2.00;99.90
4435;DHT22;46552;52.150;8.428;2023-03-01T06:04:39;-2.00;99.90
4435;DHT22;46552;52.150;8.428;2023-03-01T06:19:25;-2.10;99.90
4435;DHT22;46552;52.150;8.428;2023-03-01T06:36:40;-2.20;99.90
4435;DHT22;46552;52.150;8.428;2023-03-01T06:44:03;-2.10;99.90
4435;DHT22;46552;52.150;8.428;2023-03-01T06:53:56;-2.00;99.90
4435;DHT22;46552;52.150;8.428;2023-03-01T06:56:24;-1.90;99.90
4435;DHT22;46552;52.150;8.428;2023-03-01T07:11:10;-1.50;99.90
4435;DHT22;46552;52.150;8.428;2023-03-01T07:16:05;-1.20;99.90
4435;DHT22;46552;52.150;8.428;2023-03-01T07:21:04;-1.00;99.90
4435;DHT22;46552;52.150;8.428;2023-03-01T07:28:28;-0.60;99.90
4435;DHT22;46552;52.150;8.428;2023-03-01T07:31:04;-0.50;99.90
4435;DHT22;46552;52.150;8.428;2023-03-01T07:33:32;-0.50;99.90
4435;DHT22;46552;52.150;8.428;2023-03-01T07:36:01;-0.40;99.90
4435;DHT22;46552;52.150;8.428;2023-03-01T07:40:58;-0.20;99.90
4435;DHT22;46552;52.150;8.428;2023-03-01T07:45:58;-0.20;99.90
4435;DHT22;46552;52.150;8.428;2023-03-01T08:03:12;4.50;99.60
4435;DHT22;46552;52.150;8.428;2023-03-01T08:15:28;10.00;83.40
4435;DHT22;46552;52.150;8.428;2023-03-01T08:20:24;11.90;72.10
4435;DHT22;46552;52.150;8.428;2023-03-01T08:22:52;12.90;75.70
4435;DHT22;46552;52.150;8.428;2023-03-01T08:25:19;13.30;70.50
4435;DHT22;46552;52.150;8.428;2023-03-01T08:27:46;14.20;62.30
4435;DHT22;46552;52.150;8.428;2023-03-01T08:30:13;14.70;61.60
4435;DHT22;46552;52.150;8.428;2023-03-01T08:32:40;15.10;57.30
4435;DHT22;46552;52.150;8.428;2023-03-01T08:35:08;15.70;58.80
4435;DHT22;46552;52.150;8.428;2023-03-01T08:37:37;16.20;57.70
4435;DHT22;46552;52.150;8.428;2023-03-01T08:40:06;16.70;55.60
4435;DHT22;46552;52.150;8.428;2023-03-01T08:42:35;17.30;53.60
4435;DHT22;46552;52.150;8.428;2023-03-01T08:45:03;17.50;49.50
4435;DHT22;46552;52.150;8.428;2023-03-01T08:47:30;17.80;51.90
4435;DHT22;46552;52.150;8.428;2023-03-01T08:49:59;18.10;46.40
4435;DHT22;46552;52.150;8.428;2023-03-01T08:52:26;18.20;49.40
4435;DHT22;46552;52.150;8.428;2023-03-01T08:54:55;18.60;46.80
4435;DHT22;46552;52.150;8.428;2023-03-01T08:57:23;19.00;44.30
4435;DHT22;46552;52.150;8.428;2023-03-01T08:59:50;19.30;43.20
4435;DHT22;46552;52.150;8.428;2023-03-01T09:02:18;20.00;43.10
4435;DHT22;46552;52.150;8.428;2023-03-01T09:04:46;20.20;43.10
4435;DHT22;46552;52.150;8.428;2023-03-01T09:07:13;20.10;40.80
4435;DHT22;46552;52.150;8.428;2023-03-01T09:09:40;20.60;40.60
4435;DHT22;46552;52.150;8.428;2023-03-01T09:12:12;20.90;40.20
4435;DHT22;46552;52.150;8.428;2023-03-01T09:14:40;21.00;42.20
4435;DHT22;46552;52.150;8.428;2023-03-01T09:17:07;21.10;41.00
4435;DHT22;46552;52.150;8.428;2023-03-01T09:19:35;21.20;40.10
4435;DHT22;46552;52.150;8.428;2023-03-01T09:22:03;21.40;40.00
4435;DHT22;46552;52.150;8.428;2023-03-01T09:24:30;21.80;38.40
4435;DHT22;46552;52.150;8.428;2023-03-01T09:26:58;22.10;37.40
4435;DHT22;46552;52.150;8.428;2023-03-01T09:29:26;22.40;35.70
4435;DHT22;46552;52.150;8.428;2023-03-01T09:34:22;22.90;34.80
4435;DHT22;46552;52.150;8.428;2023-03-01T09:36:50;23.10;33.70
4435;DHT22;46552;52.150;8.428;2023-03-01T09:41:49;23.50;32.60
4435;DHT22;46552;52.150;8.428;2023-03-01T09:44:29;23.80;32.20
4435;DHT22;46552;52.150;8.428;2023-03-01T09:46:58;23.90;32.40
4435;DHT22;46552;52.150;8.428;2023-03-01T09:49:27;23.90;30.60
4435;DHT22;46552;52.150;8.428;2023-03-01T09:51:59;23.70;32.40
4435;DHT22;46552;52.150;8.428;2023-03-01T09:54:28;24.00;31.40
4435;DHT22;46552;52.150;8.428;2023-03-01T09:57:11;24.10;32.20
4435;DHT22;46552;52.150;8.428;2023-03-01T09:59:59;24.10;30.90
4435;DHT22;46552;52.150;8.428;2023-03-01T10:02:38;24.30;29.00
4435;DHT22;46552;52.150;8.428;2023-03-01T10:05:21;24.40;31.10
4435;DHT22;46552;52.150;8.428;2023-03-01T10:08:00;24.40;28.70
4435;DHT22;46552;52.150;8.428;2023-03-01T10:10:35;24.60;30.20
4435;DHT22;46552;52.150;8.428;2023-03-01T10:13:16;24.60;28.20
4435;DHT22;46552;52.150;8.428;2023-03-01T10:15:50;24.50;28.00
4435;DHT22;46552;52.150;8.428;2023-03-01T10:18:22;24.80;28.10
4435;DHT22;46552;52.150;8.428;2023-03-01T10:20:55;24.50;27.60
4435;DHT22;46552;52.150;8.428;2023-03-01T10:23:24;24.60;27.20
4435;DHT22;46552;52.150;8.428;2023-03-01T10:26:07;24.60;27.20
4435;DHT22;46552;52.150;8.428;2023-03-01T10:28:46;24.70;29.40
4435;DHT22;46552;52.150;8.428;2023-03-01T10:31:19;24.90;27.50
4435;DHT22;46552;52.150;8.428;2023-03-01T10:33:47;24.50;27.80
4435;DHT22;46552;52.150;8.428;2023-03-01T10:36:20;24.60;26.40
4435;DHT22;46552;52.150;8.428;2023-03-01T10:38:51;24.50;27.90
4435;DHT22;46552;52.150;8.428;2023-03-01T10:41:20;24.70;27.20
4435;DHT22;46552;52.150;8.428;2023-03-01T10:43:50;24.60;28.10
4435;DHT22;46552;52.150;8.428;2023-03-01T10:46:29;24.60;26.10
4435;DHT22;46552;52.150;8.428;2023-03-01T10:49:14;24.50;25.80
4435;DHT22;46552;52.150;8.428;2023-03-01T10:51:44;24.70;26.00
4435;DHT22;46552;52.150;8.428;2023-03-01T10:54:18;24.50;25.80
4435;DHT22;46552;52.150;8.428;2023-03-01T10:56:50;24.40;25.80
4435;DHT22;46552;52.150;8.428;2023-03-01T10:59:26;24.60;25.80
4435;DHT22;46552;52.150;8.428;2023-03-01T11:02:15;24.60;27.80
4435;DHT22;46552;52.150;8.428;2023-03-01T11:04:57;24.90;27.90
4435;DHT22;46552;52.150;8.428;2023-03-01T11:07:25;24.90;27.50
4435;DHT22;46552;52.150;8.428;2023-03-01T11:12:21;24.70;27.50
4435;DHT22;46552;52.150;8.428;2023-03-01T11:14:50;24.80;27.50
4435;DHT22;46552;52.150;8.428;2023-03-01T11:17:24;25.00;27.50
4435;DHT22;46552;52.150;8.428;2023-03-01T11:20:23;25.40;27.20
4435;DHT22;46552;52.150;8.428;2023-03-01T11:22:53;25.20;25.00
4435;DHT22;46552;52.150;8.428;2023-03-01T11:25:25;25.20;25.20
4435;DHT22;46552;52.150;8.428;2023-03-01T11:27:53;25.10;24.90
4435;DHT22;46552;52.150;8.428;2023-03-01T11:30:24;25.20;25.00
4435;DHT22;46552;52.150;8.428;2023-03-01T11:33:03;25.30;25.20
4435;DHT22;46552;52.150;8.428;2023-03-01T11:35:34;25.40;25.20
4435;DHT22;46552;52.150;8.428;2023-03-01T11:38:15;25.30;24.70
4435;DHT22;46552;52.150;8.428;2023-03-01T11:40:46;24.90;24.70
4435;DHT22;46552;52.150;8.428;2023-03-01T11:43:19;25.00;25.00
4435;DHT22;46552;52.150;8.428;2023-03-01T11:46:25;25.00;26.40
4435;DHT22;46552;52.150;8.428;2023-03-01T11:51:58;25.10;27.00
4435;DHT22;46552;52.150;8.428;2023-03-01T11:54:38;24.90;26.80
4435;DHT22;46552;52.150;8.428;2023-03-01T11:57:14;24.40;25.30
4435;DHT22;46552;52.150;8.428;2023-03-01T12:00:12;23.80;25.60
4435;DHT22;46552;52.150;8.428;2023-03-01T12:05:54;22.20;26.20
4435;DHT22;46552;52.150;8.428;2023-03-01T12:08:34;21.60;26.70
4435;DHT22;46552;52.150;8.428;2023-03-01T12:11:11;21.10;27.30
4435;DHT22;46552;52.150;8.428;2023-03-01T12:14:01;20.50;30.10
4435;DHT22;46552;52.150;8.428;2023-03-01T12:16:49;20.20;28.20
4435;DHT22;46552;52.150;8.428;2023-03-01T12:19:41;19.80;28.50
4435;DHT22;46552;52.150;8.428;2023-03-01T12:22:29;19.40;28.90
4435;DHT22;46552;52.150;8.428;2023-03-01T12:25:14;19.00;33.30
4435;DHT22;46552;52.150;8.428;2023-03-01T12:27:53;18.80;29.80
4435;DHT22;46552;52.150;8.428;2023-03-01T12:30:30;18.50;33.60
4435;DHT22;46552;52.150;8.428;2023-03-01T12:33:15;18.80;33.90
4435;DHT22;46552;52.150;8.428;2023-03-01T12:36:09;18.80;35.30
4435;DHT22;46552;52.150;8.428;2023-03-01T12:38:42;18.70;32.80
4435;DHT22;46552;52.150;8.428;2023-03-01T12:41:51;18.50;34.60
4435;DHT22;46552;52.150;8.428;2023-03-01T12:44:35;18.50;31.20
4435;DHT22;46552;52.150;8.428;2023-03-01T12:47:18;18.30;30.30
4435;DHT22;46552;52.150;8.428;2023-03-01T12:49:51;18.30;30.50
4435;DHT22;46552;52.150;8.428;2023-03-01T12:52:24;18.50;35.40
4435;DHT22;46552;52.150;8.428;2023-03-01T12:54:59;18.30;30.60
4435;DHT22;46552;52.150;8.428;2023-03-01T12:57:30;18.30;30.60
4435;DHT22;46552;52.150;8.428;2023-03-01T13:00:10;18.30;34.50
4435;DHT22;46552;52.150;8.428;2023-03-01T13:02:49;18.10;30.60
4435;DHT22;46552;52.150;8.428;2023-03-01T13:05:26;18.00;35.10
4435;DHT22;46552;52.150;8.428;2023-03-01T13:08:01;17.90;30.00
4435;DHT22;46552;52.150;8.428;2023-03-01T13:10:38;17.80;35.00
4435;DHT22;46552;52.150;8.428;2023-03-01T13:13:20;17.90;30.60
4435;DHT22;46552;52.150;8.428;2023-03-01T13:18:28;17.80;34.90
4435;DHT22;46552;52.150;8.428;2023-03-01T13:20:56;17.90;30.50
4435;DHT22;46552;52.150;8.428;2023-03-01T13:23:27;17.80;30.40
4435;DHT22;46552;52.150;8.428;2023-03-01T13:26:14;17.70;34.40
4435;DHT22;46552;52.150;8.428;2023-03-01T13:28:59;17.40;31.60
4435;DHT22;46552;52.150;8.428;2023-03-01T13:32:00;17.50;30.20
4435;DHT22;46552;52.150;8.428;2023-03-01T13:34:52;17.30;34.80
4435;DHT22;46552;52.150;8.428;2023-03-01T13:37:22;17.50;30.20
4435;DHT22;46552;52.150;8.428;2023-03-01T13:39:51;17.60;34.50
4435;DHT22;46552;52.150;8.428;2023-03-01T13:42:41;17.40;32.90
4435;DHT22;46552;52.150;8.428;2023-03-01T13:45:21;17.50;30.20
4435;DHT22;46552;52.150;8.428;2023-03-01T13:47:54;17.40;35.60
4435;DHT22;46552;52.150;8.428;2023-03-01T13:50:25;17.50;30.70
4435;DHT22;46552;52.150;8.428;2023-03-01T13:52:56;14.50;28.60
4435;DHT22;46552;52.150;8.428;2023-03-01T13:55:27;17.30;30.50
4435;DHT22;46552;52.150;8.428;2023-03-01T13:58:01;17.20;30.30
4435;DHT22;46552;52.150;8.428;2023-03-01T14:00:34;17.20;30.70
4435;DHT22;46552;52.150;8.428;2023-03-01T14:03:09;17.10;30.70
4435;DHT22;46552;52.150;8.428;2023-03-01T14:05:38;17.00;30.70
4435;DHT22;46552;52.150;8.428;2023-03-01T14:08:17;17.00;30.40
4435;DHT22;46552;52.150;8.428;2023-03-01T14:10:53;16.90;35.60
4435;DHT22;46552;52.150;8.428;2023-03-01T14:13:51;16.50;33.20
4435;DHT22;46552;52.150;8.428;2023-03-01T14:16:31;16.50;31.00
4435;DHT22;46552;52.150;8.428;2023-03-01T14:19:15;16.40;31.00
4435;DHT22;46552;52.150;8.428;2023-03-01T14:24:18;16.40;31.20
4435;DHT22;46552;52.150;8.428;2023-03-01T14:29:34;16.40;36.60
4435;DHT22;46552;52.150;8.428;2023-03-01T14:32:16;16.10;31.20
4435;DHT22;46552;52.150;8.428;2023-03-01T14:34:46;16.10;31.60
4435;DHT22;46552;52.150;8.428;2023-03-01T14:37:22;16.10;31.80
4435;DHT22;46552;52.150;8.428;2023-03-01T14:39:51;15.90;31.60
4435;DHT22;46552;52.150;8.428;2023-03-01T14:42:20;15.90;32.10
4435;DHT22;46552;52.150;8.428;2023-03-01T14:44:51;15.90;32.20
4435;DHT22;46552;52.150;8.428;2023-03-01T14:47:25;15.80;32.50
4435;DHT22;46552;52.150;8.428;2023-03-01T14:49:57;15.70;32.70
4435;DHT22;46552;52.150;8.428;2023-03-01T14:52:31;15.60;32.80
4435;DHT22;46552;52.150;8.428;2023-03-01T14:55:02;15.50;32.90
4435;DHT22;46552;52.150;8.428;2023-03-01T14:57:29;15.40;38.40
4435;DHT22;46552;52.150;8.428;2023-03-01T14:59:59;15.30;32.70
4435;DHT22;46552;52.150;8.428;2023-03-01T15:05:00;15.10;32.90
4435;DHT22;46552;52.150;8.428;2023-03-01T15:07:31;15.00;33.00
4435;DHT22;46552;52.150;8.428;2023-03-01T15:09:59;14.90;33.30
4435;DHT22;46552;52.150;8.428;2023-03-01T15:12:45;14.90;39.20
4435;DHT22;46552;52.150;8.428;2023-03-01T15:15:35;14.70;39.30
4435;DHT22;46552;52.150;8.428;2023-03-01T15:18:05;14.60;33.80
4435;DHT22;46552;52.150;8.428;2023-03-01T15:20:33;14.60;33.60
4435;DHT22;46552;52.150;8.428;2023-03-01T15:25:32;14.40;34.20
4435;DHT22;46552;52.150;8.428;2023-03-01T15:28:01;14.30;34.10
4435;DHT22;46552;52.150;8.428;2023-03-01T15:30:31;14.20;34.30
4435;DHT22;46552;52.150;8.428;2023-03-01T15:33:35;14.00;34.40
4435;DHT22;46552;52.150;8.428;2023-03-01T15:36:32;14.00;34.60
4435;DHT22;46552;52.150;8.428;2023-03-01T15:41:30;13.70;35.00
4435;DHT22;46552;52.150;8.428;2023-03-01T15:43:59;13.60;35.20
4435;DHT22;46552;52.150;8.428;2023-03-01T15:46:28;13.50;35.40
4435;DHT22;46552;52.150;8.428;2023-03-01T15:48:58;13.40;35.50
4435;DHT22;46552;52.150;8.428;2023-03-01T15:51:34;13.20;35.70
4435;DHT22;46552;52.150;8.428;2023-03-01T15:54:08;13.00;35.90
4435;DHT22;46552;52.150;8.428;2023-03-01T15:59:10;12.60;42.30
4435;DHT22;46552;52.150;8.428;2023-03-01T16:06:36;12.30;36.90
4435;DHT22;46552;52.150;8.428;2023-03-01T16:21:24;11.60;38.70
4435;DHT22;46552;52.150;8.428;2023-03-01T16:23:53;11.50;39.10
4435;DHT22;46552;52.150;8.428;2023-03-01T16:31:18;11.00;39.60
4435;DHT22;46552;52.150;8.428;2023-03-01T16:36:16;10.70;40.10
4435;DHT22;46552;52.150;8.428;2023-03-01T16:41:14;10.50;40.50
4435;DHT22;46552;52.150;8.428;2023-03-01T16:46:13;10.30;46.70
4435;DHT22;46552;52.150;8.428;2023-03-01T16:48:42;10.00;40.40
4435;DHT22;46552;52.150;8.428;2023-03-01T16:56:06;9.70;41.80
4435;DHT22;46552;52.150;8.428;2023-03-01T16:58:35;9.60;42.00
4435;DHT22;46552;52.150;8.428;2023-03-01T17:01:06;9.40;49.30
4435;DHT22;46552;52.150;8.428;2023-03-01T17:06:02;9.30;42.70
4435;DHT22;46552;52.150;8.428;2023-03-01T17:11:03;9.10;42.80
4435;DHT22;46552;52.150;8.428;2023-03-01T17:15:59;8.90;43.20
4435;DHT22;46552;52.150;8.428;2023-03-01T17:30:44;8.40;44.80
4435;DHT22;46552;52.150;8.428;2023-03-01T17:33:14;8.30;44.90
4435;DHT22;46552;52.150;8.428;2023-03-01T17:45:35;7.90;46.60
4435;DHT22;46552;52.150;8.428;2023-03-01T17:48:02;7.70;53.20
4435;DHT22;46552;52.150;8.428;2023-03-01T17:50:31;7.80;46.80
4435;DHT22;46552;52.150;8.428;2023-03-01T18:00:21;7.30;53.00
4435;DHT22;46552;52.150;8.428;2023-03-01T18:07:46;7.20;48.60
4435;DHT22;46552;52.150;8.428;2023-03-01T18:15:08;7.10;51.90
4435;DHT22;46552;52.150;8.428;2023-03-01T18:20:04;7.40;51.80
4435;DHT22;46552;52.150;8.428;2023-03-01T18:25:02;7.00;49.20
4435;DHT22;46552;52.150;8.428;2023-03-01T18:34:53;6.80;56.70
4435;DHT22;46552;52.150;8.428;2023-03-01T18:39:50;6.80;50.20
4435;DHT22;46552;52.150;8.428;2023-03-01T18:42:19;6.70;50.40
4435;DHT22;46552;52.150;8.428;2023-03-01T18:59:33;6.30;52.50
4435;DHT22;46552;52.150;8.428;2023-03-01T19:16:46;6.00;54.50
4435;DHT22;46552;52.150;8.428;2023-03-01T19:31:36;5.60;56.40
4435;DHT22;46552;52.150;8.428;2023-03-01T19:34:06;5.50;56.70
4435;DHT22;46552;52.150;8.428;2023-03-01T19:39:02;5.50;57.10
4435;DHT22;46552;52.150;8.428;2023-03-01T19:51:25;5.30;58.80
4435;DHT22;46552;52.150;8.428;2023-03-01T20:01:16;5.10;60.60
4435;DHT22;46552;52.150;8.428;2023-03-01T20:03:43;5.10;60.70
4435;DHT22;46552;52.150;8.428;2023-03-01T20:06:14;5.10;61.50
4435;DHT22;46552;52.150;8.428;2023-03-01T20:08:44;5.00;61.70
4435;DHT22;46552;52.150;8.428;2023-03-01T20:11:13;5.00;62.00
4435;DHT22;46552;52.150;8.428;2023-03-01T20:21:03;4.50;71.60
4435;DHT22;46552;52.150;8.428;2023-03-01T20:26:03;4.50;65.50
4435;DHT22;46552;52.150;8.428;2023-03-01T20:31:03;4.40;67.00
4435;DHT22;46552;52.150;8.428;2023-03-01T20:40:56;4.20;69.50
4435;DHT22;46552;52.150;8.428;2023-03-01T20:43:25;4.20;70.10
4435;DHT22;46552;52.150;8.428;2023-03-01T21:00:39;3.90;74.90
4435;DHT22;46552;52.150;8.428;2023-03-01T21:17:55;4.10;74.80
4435;DHT22;46552;52.150;8.428;2023-03-01T21:27:45;4.10;75.70
4435;DHT22;46552;52.150;8.428;2023-03-01T21:30:14;4.00;76.00
4435;DHT22;46552;52.150;8.428;2023-03-01T21:35:10;4.00;82.40
4435;DHT22;46552;52.150;8.428;2023-03-01T21:40:06;4.00;76.80
4435;DHT22;46552;52.150;8.428;2023-03-01T21:45:03;3.80;77.20
4435;DHT22;46552;52.150;8.428;2023-03-01T21:52:29;3.60;79.10
4435;DHT22;46552;52.150;8.428;2023-03-01T22:05:08;3.10;83.50
4435;DHT22;46552;52.150;8.428;2023-03-01T22:07:37;3.10;84.50
4435;DHT22;46552;52.150;8.428;2023-03-01T22:10:05;3.20;90.70
4435;DHT22;46552;52.150;8.428;2023-03-01T22:24:51;3.00;87.40
4435;DHT22;46552;52.150;8.428;2023-03-01T22:27:20;2.90;87.70
4435;DHT22;46552;52.150;8.428;2023-03-01T22:42:05;2.60;91.00
4435;DHT22;46552;52.150;8.428;2023-03-01T22:59:20;2.00;93.30
4435;DHT22;46552;52.150;8.428;2023-03-01T23:01:48;2.00;93.70
4435;DHT22;46552;52.150;8.428;2023-03-01T23:04:17;2.00;94.00
4435;DHT22;46552;52.150;8.428;2023-03-01T23:09:22;2.00;94.00
4435;DHT22;46552;52.150;8.428;2023-03-01T23:14:20;2.10;93.90
4435;DHT22;46552;52.150;8.428;2023-03-01T23:16:48;2.20;94.10
4435;DHT22;46552;52.150;8.428;2023-03-01T23:29:08;2.00;94.60
4435;DHT22;46552;52.150;8.428;2023-03-01T23:31:36;2.10;94.50
4435;DHT22;46552;52.150;8.428;2023-03-01T23:36:33;2.20;94.30
4435;DHT22;46552;52.150;8.428;2023-03-01T23:39:02;2.30;94.30
4435;DHT22;46552;52.150;8.428;2023-03-01T23:41:31;2.40;94.10
4435;DHT22;46552;52.150;8.428;2023-03-01T23:44:01;2.40;93.90
4435;DHT22;46552;52.150;8.428;2023-03-01T23:46:30;2.50;93.70
4435;DHT22;46552;52.150;8.428;2023-03-01T23:48:59;2.40;93.60
4435;DHT22;46552;52.150;8.428;2023-03-01T23:53:55;2.60;93.20
4435;DHT22;46552;52.150;8.428;2023-03-01T23:56:26;2.60;93.20
4435;DHT22;46552;52.150;8.428;2023-03-01T23:58:54;2.60;93.10
